sensor_id;sensor_type;location;lat;lon;timestamp;temperature;humidity
6738;DHT22;3406;49.902;8.596;2023-04-30T00:00:00;13.20;78.40
6738;DHT22;3406;49.902;8.596;2023-04-30T00:02:27;13.20;78.40
6738;DHT22;3406;49.902;8.596;2023-04-30T00:04:54;13.20;78.40
6738;DHT22;3406;49.902;8.596;2023-04-30T00:07:22;13.20;78.50
6738;DHT22;3406;49.902;8.596;2023-04-30T00:09:48;13.20;78.50
6738;DHT22;3406;49.902;8.596;2023-04-30T00:12:15;13.20;78.50
6738;DHT22;3406;49.902;8.596;2023-04-30T00:14:42;13.20;78.60
6738;DHT22;3406;49.902;8.596;2023-04-30T00:17:09;13.20;78.60
6738;DHT22;3406;49.902;8.596;2023-04-30T00:19:35;13.10;78.60
6738;DHT22;3406;49.902;8.596;2023-04-30T00:22:02;13.10;78.70
6738;DHT22;3406;49.902;8.596;2023-04-30T00:24:31;13.10;78.70
6738;DHT22;3406;49.902;8.596;2023-04-30T00:26:58;13.10;78.70
6738;DHT22;3406;49.902;8.596;2023-04-30T00:29:25;13.10;78.80
6738;DHT22;3406;49.902;8.596;2023-04-30T00:31:51;13.10;78.80
6738;DHT22;3406;49.902;8.596;2023-04-30T00:34:18;13.10;78.90
6738;DHT22;3406;49.902;8.596;2023-04-30T00:36:45;13.10;78.90
6738;DHT22;3406;49.902;8.596;2023-04-30T00:39:11;13.10;79.10
6738;DHT22;3406;49.902;8.596;2023-04-30T00:41:40;13.10;79.10
6738;DHT22;3406;49.902;8.596;2023-04-30T00:44:07;13.10;79.20
6738;DHT22;3406;49.902;8.596;2023-04-30T00:46:33;13.10;79.40
6738;DHT22;3406;49.902;8.596;2023-04-30T00:49:00;13.10;79.30
6738;DHT22;3406;49.902;8.596;2023-04-30T00:51:30;13.10;79.30
6738;DHT22;3406;49.902;8.596;2023-04-30T00:54:00;13.00;79.30
6738;DHT22;3406;49.902;8.596;2023-04-30T00:56:28;13.00;79.40
6738;DHT22;3406;49.902;8.596;2023-04-30T00:58:56;13.00;79.40
6738;DHT22;3406;49.902;8.596;2023-04-30T01:01:23;13.00;79.50
6738;DHT22;3406;49.902;8.596;2023-04-30T01:03:50;13.00;79.50
6738;DHT22;3406;49.902;8.596;2023-04-30T01:06:17;13.00;79.60
6738;DHT22;3406;49.902;8.596;2023-04-30T01:08:44;13.00;79.60
6738;DHT22;3406;49.902;8.596;2023-04-30T01:11:16;13.00;79.70
6738;DHT22;3406;49.902;8.596;2023-04-30T01:13:52;13.00;79.70
6738;DHT22;3406;49.902;8.596;2023-04-30T01:16:23;13.00;79.80
6738;DHT22;3406;49.902;8.596;2023-04-30T01:18:55;13.00;79.90
6738;DHT22;3406;49.902;8.596;2023-04-30T01:21:23;13.00;80.00
6738;DHT22;3406;49.902;8.596;2023-04-30T01:24:23;13.00;80.00
6738;DHT22;3406;49.902;8.596;2023-04-30T01:27:06;12.90;80.10
6738;DHT22;3406;49.902;8.596;2023-04-30T01:29:41;12.90;80.20
6738;DHT22;3406;49.902;8.596;2023-04-30T01:32:09;12.90;80.30
6738;DHT22;3406;49.902;8.596;2023-04-30T01:34:35;12.90;80.40
6738;DHT22;3406;49.902;8.596;2023-04-30T01:37:10;12.80;80.40
6738;DHT22;3406;49.902;8.596;2023-04-30T01:39:54;12.80;80.50
6738;DHT22;3406;49.902;8.596;2023-04-30T01:42:32;12.80;80.60
6738;DHT22;3406;49.902;8.596;2023-04-30T01:45:15;12.80;80.70
6738;DHT22;3406;49.902;8.596;2023-04-30T01:47:49;12.80;80.80
6738;DHT22;3406;49.902;8.596;2023-04-30T01:50:24;12.80;80.90
6738;DHT22;3406;49.902;8.596;2023-04-30T01:52:56;12.70;80.80
6738;DHT22;3406;49.902;8.596;2023-04-30T01:55:29;12.80;81.00
6738;DHT22;3406;49.902;8.596;2023-04-30T01:58:00;12.70;81.00
6738;DHT22;3406;49.902;8.596;2023-04-30T02:00:29;12.70;81.10
6738;DHT22;3406;49.902;8.596;2023-04-30T02:02:56;12.70;81.20
6738;DHT22;3406;49.902;8.596;2023-04-30T02:05:23;12.70;81.30
6738;DHT22;3406;49.902;8.596;2023-04-30T02:07:51;12.70;81.40
6738;DHT22;3406;49.902;8.596;2023-04-30T02:10:19;12.60;81.40
6738;DHT22;3406;49.902;8.596;2023-04-30T02:12:46;12.60;81.50
6738;DHT22;3406;49.902;8.596;2023-04-30T02:15:13;12.60;81.50
6738;DHT22;3406;49.902;8.596;2023-04-30T02:17:41;12.60;81.60
6738;DHT22;3406;49.902;8.596;2023-04-30T02:20:09;12.60;81.60
6738;DHT22;3406;49.902;8.596;2023-04-30T02:22:36;12.60;81.70
6738;DHT22;3406;49.902;8.596;2023-04-30T02:25:03;12.60;81.70
6738;DHT22;3406;49.902;8.596;2023-04-30T02:27:31;12.60;81.80
6738;DHT22;3406;49.902;8.596;2023-04-30T02:29:57;12.60;81.90
6738;DHT22;3406;49.902;8.596;2023-04-30T02:32:24;12.50;81.80
6738;DHT22;3406;49.902;8.596;2023-04-30T02:34:52;12.60;82.00
6738;DHT22;3406;49.902;8.596;2023-04-30T02:37:19;12.50;81.90
6738;DHT22;3406;49.902;8.596;2023-04-30T02:39:46;12.50;81.90
6738;DHT22;3406;49.902;8.596;2023-04-30T02:42:12;12.50;82.00
6738;DHT22;3406;49.902;8.596;2023-04-30T02:44:39;12.50;82.00
6738;DHT22;3406;49.902;8.596;2023-04-30T02:47:06;12.50;82.00
6738;DHT22;3406;49.902;8.596;2023-04-30T02:49:32;12.50;82.10
6738;DHT22;3406;49.902;8.596;2023-04-30T02:52:00;12.50;82.10
6738;DHT22;3406;49.902;8.596;2023-04-30T02:54:33;12.50;82.20
6738;DHT22;3406;49.902;8.596;2023-04-30T02:57:00;12.50;82.30
6738;DHT22;3406;49.902;8.596;2023-04-30T02:59:26;12.50;82.30
6738;DHT22;3406;49.902;8.596;2023-04-30T03:01:53;12.40;82.30
6738;DHT22;3406;49.902;8.596;2023-04-30T03:04:20;12.40;82.30
6738;DHT22;3406;49.902;8.596;2023-04-30T03:06:46;12.40;82.30
6738;DHT22;3406;49.902;8.596;2023-04-30T03:09:14;12.40;82.40
6738;DHT22;3406;49.902;8.596;2023-04-30T03:11:41;12.40;82.50
6738;DHT22;3406;49.902;8.596;2023-04-30T03:14:07;12.40;82.50
6738;DHT22;3406;49.902;8.596;2023-04-30T03:16:34;12.40;82.50
6738;DHT22;3406;49.902;8.596;2023-04-30T03:19:01;12.40;82.50
6738;DHT22;3406;49.902;8.596;2023-04-30T03:21:28;12.40;82.60
6738;DHT22;3406;49.902;8.596;2023-04-30T03:23:55;12.30;82.50
6738;DHT22;3406;49.902;8.596;2023-04-30T03:26:23;12.30;82.60
6738;DHT22;3406;49.902;8.596;2023-04-30T03:28:49;12.30;82.60
6738;DHT22;3406;49.902;8.596;2023-04-30T03:31:16;12.30;82.60
6738;DHT22;3406;49.902;8.596;2023-04-30T03:33:43;12.30;82.60
6738;DHT22;3406;49.902;8.596;2023-04-30T03:36:09;12.30;82.70
6738;DHT22;3406;49.902;8.596;2023-04-30T03:38:37;12.20;82.90
6738;DHT22;3406;49.902;8.596;2023-04-30T03:41:04;12.20;82.90
6738;DHT22;3406;49.902;8.596;2023-04-30T03:43:32;12.30;83.30
6738;DHT22;3406;49.902;8.596;2023-04-30T03:45:59;12.30;83.20
6738;DHT22;3406;49.902;8.596;2023-04-30T03:48:25;12.30;83.40
6738;DHT22;3406;49.902;8.596;2023-04-30T03:50:52;12.30;83.40
6738;DHT22;3406;49.902;8.596;2023-04-30T03:53:19;12.30;83.20
6738;DHT22;3406;49.902;8.596;2023-04-30T03:55:46;12.30;83.10
6738;DHT22;3406;49.902;8.596;2023-04-30T03:58:13;12.30;83.00
6738;DHT22;3406;49.902;8.596;2023-04-30T04:00:41;12.20;82.90
6738;DHT22;3406;49.902;8.596;2023-04-30T04:03:10;12.20;83.00
6738;DHT22;3406;49.902;8.596;2023-04-30T04:05:36;12.20;83.00
6738;DHT22;3406;49.902;8.596;2023-04-30T04:08:03;12.20;82.90
6738;DHT22;3406;49.902;8.596;2023-04-30T04:10:31;12.20;83.00
6738;DHT22;3406;49.902;8.596;2023-04-30T04:12:57;12.20;83.00
6738;DHT22;3406;49.902;8.596;2023-04-30T04:15:24;12.20;83.00
6738;DHT22;3406;49.902;8.596;2023-04-30T04:17:52;12.10;82.90
6738;DHT22;3406;49.902;8.596;2023-04-30T04:20:18;12.10;83.00
6738;DHT22;3406;49.902;8.596;2023-04-30T04:22:45;12.10;83.00
6738;DHT22;3406;49.902;8.596;2023-04-30T04:25:12;12.10;83.00
6738;DHT22;3406;49.902;8.596;2023-04-30T04:27:39;12.10;83.10
6738;DHT22;3406;49.902;8.596;2023-04-30T04:30:07;12.10;83.10
6738;DHT22;3406;49.902;8.596;2023-04-30T04:32:34;12.10;83.10
6738;DHT22;3406;49.902;8.596;2023-04-30T04:35:12;12.10;83.10
6738;DHT22;3406;49.902;8.596;2023-04-30T04:37:39;12.10;83.10
6738;DHT22;3406;49.902;8.596;2023-04-30T04:40:07;12.00;83.10
6738;DHT22;3406;49.902;8.596;2023-04-30T04:42:35;12.10;83.20
6738;DHT22;3406;49.902;8.596;2023-04-30T04:45:03;12.10;83.30
6738;DHT22;3406;49.902;8.596;2023-04-30T04:47:30;12.10;83.30
6738;DHT22;3406;49.902;8.596;2023-04-30T04:49:57;12.10;83.30
6738;DHT22;3406;49.902;8.596;2023-04-30T04:52:25;12.00;83.20
6738;DHT22;3406;49.902;8.596;2023-04-30T04:54:51;12.10;83.30
6738;DHT22;3406;49.902;8.596;2023-04-30T04:57:18;12.10;83.30
6738;DHT22;3406;49.902;8.596;2023-04-30T04:59:45;12.10;83.30
6738;DHT22;3406;49.902;8.596;2023-04-30T05:02:12;12.10;83.40
6738;DHT22;3406;49.902;8.596;2023-04-30T05:04:38;12.10;83.40
6738;DHT22;3406;49.902;8.596;2023-04-30T05:07:06;12.10;83.40
6738;DHT22;3406;49.902;8.596;2023-04-30T05:09:34;12.10;83.50
6738;DHT22;3406;49.902;8.596;2023-04-30T05:12:01;12.10;83.50
6738;DHT22;3406;49.902;8.596;2023-04-30T05:14:27;12.10;83.40
6738;DHT22;3406;49.902;8.596;2023-04-30T05:16:54;12.10;83.30
6738;DHT22;3406;49.902;8.596;2023-04-30T05:19:21;12.10;83.40
6738;DHT22;3406;49.902;8.596;2023-04-30T05:21:47;12.10;83.40
6738;DHT22;3406;49.902;8.596;2023-04-30T05:24:14;12.10;83.40
6738;DHT22;3406;49.902;8.596;2023-04-30T05:26:42;12.10;83.50
6738;DHT22;3406;49.902;8.596;2023-04-30T05:29:09;12.20;83.50
6738;DHT22;3406;49.902;8.596;2023-04-30T05:31:36;12.20;83.60
6738;DHT22;3406;49.902;8.596;2023-04-30T05:34:02;12.20;83.40
6738;DHT22;3406;49.902;8.596;2023-04-30T05:36:29;12.20;83.40
6738;DHT22;3406;49.902;8.596;2023-04-30T05:38:56;12.30;83.50
6738;DHT22;3406;49.902;8.596;2023-04-30T05:41:23;12.30;83.40
6738;DHT22;3406;49.902;8.596;2023-04-30T05:43:51;12.30;83.30
6738;DHT22;3406;49.902;8.596;2023-04-30T05:46:17;12.40;83.20
6738;DHT22;3406;49.902;8.596;2023-04-30T05:48:44;12.40;83.30
6738;DHT22;3406;49.902;8.596;2023-04-30T05:51:11;12.40;83.10
6738;DHT22;3406;49.902;8.596;2023-04-30T05:53:37;12.50;83.10
6738;DHT22;3406;49.902;8.596;2023-04-30T05:56:04;12.50;83.00
6738;DHT22;3406;49.902;8.596;2023-04-30T05:58:31;12.60;83.00
6738;DHT22;3406;49.902;8.596;2023-04-30T06:00:59;12.60;82.90
6738;DHT22;3406;49.902;8.596;2023-04-30T06:03:26;12.60;82.80
6738;DHT22;3406;49.902;8.596;2023-04-30T06:05:53;12.60;82.60
6738;DHT22;3406;49.902;8.596;2023-04-30T06:08:19;12.60;82.40
6738;DHT22;3406;49.902;8.596;2023-04-30T06:10:46;12.60;82.40
6738;DHT22;3406;49.902;8.596;2023-04-30T06:13:13;12.70;82.60
6738;DHT22;3406;49.902;8.596;2023-04-30T06:15:40;12.90;82.50
6738;DHT22;3406;49.902;8.596;2023-04-30T06:18:08;13.00;82.30
6738;DHT22;3406;49.902;8.596;2023-04-30T06:20:37;13.10;82.10
6738;DHT22;3406;49.902;8.596;2023-04-30T06:23:03;13.30;82.00
6738;DHT22;3406;49.902;8.596;2023-04-30T06:25:30;13.40;81.50
6738;DHT22;3406;49.902;8.596;2023-04-30T06:27:57;13.60;81.20
6738;DHT22;3406;49.902;8.596;2023-04-30T06:30:23;13.70;80.90
6738;DHT22;3406;49.902;8.596;2023-04-30T06:32:50;13.70;80.30
6738;DHT22;3406;49.902;8.596;2023-04-30T06:35:18;13.80;80.00
6738;DHT22;3406;49.902;8.596;2023-04-30T06:37:45;13.90;79.70
6738;DHT22;3406;49.902;8.596;2023-04-30T06:40:11;14.00;79.60
6738;DHT22;3406;49.902;8.596;2023-04-30T06:42:38;14.10;79.30
6738;DHT22;3406;49.902;8.596;2023-04-30T06:45:05;14.30;79.00
6738;DHT22;3406;49.902;8.596;2023-04-30T06:47:32;14.50;78.70
6738;DHT22;3406;49.902;8.596;2023-04-30T06:50:00;14.60;78.10
6738;DHT22;3406;49.902;8.596;2023-04-30T06:52:29;14.80;77.60
6738;DHT22;3406;49.902;8.596;2023-04-30T06:54:56;15.00;77.30
6738;DHT22;3406;49.902;8.596;2023-04-30T06:57:22;15.00;76.50
6738;DHT22;3406;49.902;8.596;2023-04-30T06:59:50;15.10;76.20
6738;DHT22;3406;49.902;8.596;2023-04-30T07:02:16;15.20;75.90
6738;DHT22;3406;49.902;8.596;2023-04-30T07:04:43;15.30;75.60
6738;DHT22;3406;49.902;8.596;2023-04-30T07:07:10;15.50;75.20
6738;DHT22;3406;49.902;8.596;2023-04-30T07:09:38;15.70;74.90
6738;DHT22;3406;49.902;8.596;2023-04-30T07:12:05;15.70;74.20
6738;DHT22;3406;49.902;8.596;2023-04-30T07:14:31;15.90;73.70
6738;DHT22;3406;49.902;8.596;2023-04-30T07:16:58;15.90;73.30
6738;DHT22;3406;49.902;8.596;2023-04-30T07:19:25;16.00;73.00
6738;DHT22;3406;49.902;8.596;2023-04-30T07:21:51;16.10;72.70
6738;DHT22;3406;49.902;8.596;2023-04-30T07:24:18;16.20;72.30
6738;DHT22;3406;49.902;8.596;2023-04-30T07:26:46;16.20;71.60
6738;DHT22;3406;49.902;8.596;2023-04-30T07:29:13;16.30;71.20
6738;DHT22;3406;49.902;8.596;2023-04-30T07:31:39;16.40;70.30
6738;DHT22;3406;49.902;8.596;2023-04-30T07:34:06;16.30;69.60
6738;DHT22;3406;49.902;8.596;2023-04-30T07:36:33;16.30;68.60
6738;DHT22;3406;49.902;8.596;2023-04-30T07:39:00;16.30;68.30
6738;DHT22;3406;49.902;8.596;2023-04-30T07:41:26;16.30;68.00
6738;DHT22;3406;49.902;8.596;2023-04-30T07:43:54;16.30;67.90
6738;DHT22;3406;49.902;8.596;2023-04-30T07:46:23;16.40;67.70
6738;DHT22;3406;49.902;8.596;2023-04-30T07:48:50;16.40;66.70
6738;DHT22;3406;49.902;8.596;2023-04-30T07:51:16;16.50;66.60
6738;DHT22;3406;49.902;8.596;2023-04-30T07:53:44;16.60;66.50
6738;DHT22;3406;49.902;8.596;2023-04-30T07:56:11;16.60;66.00
6738;DHT22;3406;49.902;8.596;2023-04-30T07:58:37;16.70;65.90
6738;DHT22;3406;49.902;8.596;2023-04-30T08:01:05;16.70;65.50
6738;DHT22;3406;49.902;8.596;2023-04-30T08:03:32;16.70;64.60
6738;DHT22;3406;49.902;8.596;2023-04-30T08:05:59;16.80;64.70
6738;DHT22;3406;49.902;8.596;2023-04-30T08:08:26;16.80;64.30
6738;DHT22;3406;49.902;8.596;2023-04-30T08:10:53;16.80;63.90
6738;DHT22;3406;49.902;8.596;2023-04-30T08:13:19;16.80;63.40
6738;DHT22;3406;49.902;8.596;2023-04-30T08:15:46;16.80;62.60
6738;DHT22;3406;49.902;8.596;2023-04-30T08:18:14;16.80;61.60
6738;DHT22;3406;49.902;8.596;2023-04-30T08:20:40;16.80;61.20
6738;DHT22;3406;49.902;8.596;2023-04-30T08:23:07;16.80;61.00
6738;DHT22;3406;49.902;8.596;2023-04-30T08:25:34;16.90;61.10
6738;DHT22;3406;49.902;8.596;2023-04-30T08:28:01;16.90;61.60
6738;DHT22;3406;49.902;8.596;2023-04-30T08:30:28;17.00;60.70
6738;DHT22;3406;49.902;8.596;2023-04-30T08:32:54;17.10;60.00
6738;DHT22;3406;49.902;8.596;2023-04-30T08:35:22;17.00;59.40
6738;DHT22;3406;49.902;8.596;2023-04-30T08:37:49;17.10;59.00
6738;DHT22;3406;49.902;8.596;2023-04-30T08:40:16;17.10;58.90
6738;DHT22;3406;49.902;8.596;2023-04-30T08:42:45;17.10;58.80
6738;DHT22;3406;49.902;8.596;2023-04-30T08:45:15;17.20;58.70
6738;DHT22;3406;49.902;8.596;2023-04-30T08:47:44;17.40;58.70
6738;DHT22;3406;49.902;8.596;2023-04-30T08:50:11;17.40;58.00
6738;DHT22;3406;49.902;8.596;2023-04-30T08:52:39;17.40;57.00
6738;DHT22;3406;49.902;8.596;2023-04-30T08:55:08;17.40;57.00
6738;DHT22;3406;49.902;8.596;2023-04-30T08:57:36;17.40;56.10
6738;DHT22;3406;49.902;8.596;2023-04-30T09:00:03;17.50;56.20
6738;DHT22;3406;49.902;8.596;2023-04-30T09:02:31;17.60;56.10
6738;DHT22;3406;49.902;8.596;2023-04-30T09:04:58;17.60;56.20
6738;DHT22;3406;49.902;8.596;2023-04-30T09:07:25;17.60;56.20
6738;DHT22;3406;49.902;8.596;2023-04-30T09:09:54;17.70;55.80
6738;DHT22;3406;49.902;8.596;2023-04-30T09:12:22;17.60;55.70
6738;DHT22;3406;49.902;8.596;2023-04-30T09:15:00;17.70;55.50
6738;DHT22;3406;49.902;8.596;2023-04-30T09:17:28;17.80;55.40
6738;DHT22;3406;49.902;8.596;2023-04-30T09:20:05;17.90;54.80
6738;DHT22;3406;49.902;8.596;2023-04-30T09:22:32;17.90;54.50
6738;DHT22;3406;49.902;8.596;2023-04-30T09:25:00;18.00;54.40
6738;DHT22;3406;49.902;8.596;2023-04-30T09:27:27;18.10;54.20
6738;DHT22;3406;49.902;8.596;2023-04-30T09:29:54;18.10;53.40
6738;DHT22;3406;49.902;8.596;2023-04-30T09:32:21;18.10;53.50
6738;DHT22;3406;49.902;8.596;2023-04-30T09:34:47;18.00;53.60
6738;DHT22;3406;49.902;8.596;2023-04-30T09:37:14;18.00;52.90
6738;DHT22;3406;49.902;8.596;2023-04-30T09:39:52;18.00;52.20
6738;DHT22;3406;49.902;8.596;2023-04-30T09:42:20;18.10;51.60
6738;DHT22;3406;49.902;8.596;2023-04-30T09:44:47;18.20;51.60
6738;DHT22;3406;49.902;8.596;2023-04-30T09:47:15;18.30;51.60
6738;DHT22;3406;49.902;8.596;2023-04-30T09:49:46;18.40;51.60
6738;DHT22;3406;49.902;8.596;2023-04-30T09:52:16;18.50;51.20
6738;DHT22;3406;49.902;8.596;2023-04-30T09:54:44;18.60;50.70
6738;DHT22;3406;49.902;8.596;2023-04-30T09:57:13;18.70;50.40
6738;DHT22;3406;49.902;8.596;2023-04-30T09:59:43;18.70;50.00
6738;DHT22;3406;49.902;8.596;2023-04-30T10:02:13;18.80;50.30
6738;DHT22;3406;49.902;8.596;2023-04-30T10:04:42;18.80;49.90
6738;DHT22;3406;49.902;8.596;2023-04-30T10:07:12;18.80;49.00
6738;DHT22;3406;49.902;8.596;2023-04-30T10:09:43;18.80;49.30
6738;DHT22;3406;49.902;8.596;2023-04-30T10:12:14;19.00;49.40
6738;DHT22;3406;49.902;8.596;2023-04-30T10:14:47;19.10;48.90
6738;DHT22;3406;49.902;8.596;2023-04-30T10:17:15;19.20;49.00
6738;DHT22;3406;49.902;8.596;2023-04-30T10:19:45;19.30;48.70
6738;DHT22;3406;49.902;8.596;2023-04-30T10:22:13;19.40;48.60
6738;DHT22;3406;49.902;8.596;2023-04-30T10:24:41;19.50;48.60
6738;DHT22;3406;49.902;8.596;2023-04-30T10:27:09;19.60;48.20
6738;DHT22;3406;49.902;8.596;2023-04-30T10:29:36;19.50;47.70
6738;DHT22;3406;49.902;8.596;2023-04-30T10:32:05;19.50;47.60
6738;DHT22;3406;49.902;8.596;2023-04-30T10:34:39;19.50;47.40
6738;DHT22;3406;49.902;8.596;2023-04-30T10:37:12;19.50;46.90
6738;DHT22;3406;49.902;8.596;2023-04-30T10:39:41;19.50;46.30
6738;DHT22;3406;49.902;8.596;2023-04-30T10:42:09;19.50;45.70
6738;DHT22;3406;49.902;8.596;2023-04-30T10:44:36;19.40;46.20
6738;DHT22;3406;49.902;8.596;2023-04-30T10:47:06;19.40;45.70
6738;DHT22;3406;49.902;8.596;2023-04-30T10:49:33;19.40;45.50
6738;DHT22;3406;49.902;8.596;2023-04-30T10:52:01;19.40;45.30
6738;DHT22;3406;49.902;8.596;2023-04-30T10:54:29;19.40;45.60
6738;DHT22;3406;49.902;8.596;2023-04-30T10:57:08;19.50;45.60
6738;DHT22;3406;49.902;8.596;2023-04-30T10:59:36;19.60;45.60
6738;DHT22;3406;49.902;8.596;2023-04-30T11:02:04;19.60;45.60
6738;DHT22;3406;49.902;8.596;2023-04-30T11:04:31;19.50;45.40
6738;DHT22;3406;49.902;8.596;2023-04-30T11:07:05;19.50;45.30
6738;DHT22;3406;49.902;8.596;2023-04-30T11:09:38;19.50;45.40
6738;DHT22;3406;49.902;8.596;2023-04-30T11:12:10;19.40;45.40
6738;DHT22;3406;49.902;8.596;2023-04-30T11:14:40;19.40;45.40
6738;DHT22;3406;49.902;8.596;2023-04-30T11:17:09;19.40;45.20
6738;DHT22;3406;49.902;8.596;2023-04-30T11:19:45;19.30;45.10
6738;DHT22;3406;49.902;8.596;2023-04-30T11:22:17;19.30;45.10
6738;DHT22;3406;49.902;8.596;2023-04-30T11:24:54;19.40;45.30
6738;DHT22;3406;49.902;8.596;2023-04-30T11:27:27;19.50;45.60
6738;DHT22;3406;49.902;8.596;2023-04-30T11:29:55;19.50;45.10
6738;DHT22;3406;49.902;8.596;2023-04-30T11:32:24;19.70;45.20
6738;DHT22;3406;49.902;8.596;2023-04-30T11:34:51;19.80;45.20
6738;DHT22;3406;49.902;8.596;2023-04-30T11:37:20;19.70;44.90
6738;DHT22;3406;49.902;8.596;2023-04-30T11:39:47;19.70;44.70
6738;DHT22;3406;49.902;8.596;2023-04-30T11:42:15;19.60;44.30
6738;DHT22;3406;49.902;8.596;2023-04-30T11:44:43;19.50;44.30
6738;DHT22;3406;49.902;8.596;2023-04-30T11:47:11;19.50;44.60
6738;DHT22;3406;49.902;8.596;2023-04-30T11:49:39;19.60;44.50
6738;DHT22;3406;49.902;8.596;2023-04-30T11:52:06;19.80;44.20
6738;DHT22;3406;49.902;8.596;2023-04-30T11:54:35;19.80;43.90
6738;DHT22;3406;49.902;8.596;2023-04-30T11:57:02;20.00;44.00
6738;DHT22;3406;49.902;8.596;2023-04-30T11:59:29;20.10;43.80
6738;DHT22;3406;49.902;8.596;2023-04-30T12:01:56;20.20;43.70
6738;DHT22;3406;49.902;8.596;2023-04-30T12:04:23;20.20;43.10
6738;DHT22;3406;49.902;8.596;2023-04-30T12:06:53;20.20;43.30
6738;DHT22;3406;49.902;8.596;2023-04-30T12:09:19;20.20;42.90
6738;DHT22;3406;49.902;8.596;2023-04-30T12:11:46;20.00;42.10
6738;DHT22;3406;49.902;8.596;2023-04-30T12:14:13;19.90;42.60
6738;DHT22;3406;49.902;8.596;2023-04-30T12:16:41;19.90;43.10
6738;DHT22;3406;49.902;8.596;2023-04-30T12:19:08;20.10;43.20
6738;DHT22;3406;49.902;8.596;2023-04-30T12:21:35;20.30;43.20
6738;DHT22;3406;49.902;8.596;2023-04-30T12:24:04;20.30;42.70
6738;DHT22;3406;49.902;8.596;2023-04-30T12:26:35;20.30;42.90
6738;DHT22;3406;49.902;8.596;2023-04-30T12:29:03;20.40;43.00
6738;DHT22;3406;49.902;8.596;2023-04-30T12:31:31;20.40;42.80
6738;DHT22;3406;49.902;8.596;2023-04-30T12:34:02;20.40;42.90
6738;DHT22;3406;49.902;8.596;2023-04-30T12:36:30;20.40;43.10
6738;DHT22;3406;49.902;8.596;2023-04-30T12:39:06;20.50;42.60
6738;DHT22;3406;49.902;8.596;2023-04-30T12:41:38;20.40;42.50
6738;DHT22;3406;49.902;8.596;2023-04-30T12:44:16;20.30;42.60
6738;DHT22;3406;49.902;8.596;2023-04-30T12:46:43;20.20;42.80
6738;DHT22;3406;49.902;8.596;2023-04-30T12:49:10;20.40;42.90
6738;DHT22;3406;49.902;8.596;2023-04-30T12:51:38;20.50;42.70
6738;DHT22;3406;49.902;8.596;2023-04-30T12:54:09;20.80;42.60
6738;DHT22;3406;49.902;8.596;2023-04-30T12:56:35;20.90;42.60
6738;DHT22;3406;49.902;8.596;2023-04-30T12:59:13;21.00;41.60
6738;DHT22;3406;49.902;8.596;2023-04-30T13:01:43;21.10;41.10
6738;DHT22;3406;49.902;8.596;2023-04-30T13:04:10;21.20;39.20
6738;DHT22;3406;49.902;8.596;2023-04-30T13:06:37;21.20;38.90
6738;DHT22;3406;49.902;8.596;2023-04-30T13:09:03;21.30;39.60
6738;DHT22;3406;49.902;8.596;2023-04-30T13:11:32;21.40;39.60
6738;DHT22;3406;49.902;8.596;2023-04-30T13:13:58;21.60;40.00
6738;DHT22;3406;49.902;8.596;2023-04-30T13:16:25;21.60;40.10
6738;DHT22;3406;49.902;8.596;2023-04-30T13:18:52;21.70;40.00
6738;DHT22;3406;49.902;8.596;2023-04-30T13:21:20;21.70;40.10
6738;DHT22;3406;49.902;8.596;2023-04-30T13:23:47;21.70;40.20
6738;DHT22;3406;49.902;8.596;2023-04-30T13:26:14;21.80;40.40
6738;DHT22;3406;49.902;8.596;2023-04-30T13:28:42;21.90;40.50
6738;DHT22;3406;49.902;8.596;2023-04-30T13:31:08;22.00;40.50
6738;DHT22;3406;49.902;8.596;2023-04-30T13:33:35;22.10;40.30
6738;DHT22;3406;49.902;8.596;2023-04-30T13:36:02;22.20;40.40
6738;DHT22;3406;49.902;8.596;2023-04-30T13:38:28;22.30;40.30
6738;DHT22;3406;49.902;8.596;2023-04-30T13:40:55;22.30;39.20
6738;DHT22;3406;49.902;8.596;2023-04-30T13:43:22;22.20;39.00
6738;DHT22;3406;49.902;8.596;2023-04-30T13:45:50;22.10;39.00
6738;DHT22;3406;49.902;8.596;2023-04-30T13:48:16;22.10;38.80
6738;DHT22;3406;49.902;8.596;2023-04-30T13:50:43;22.30;38.60
6738;DHT22;3406;49.902;8.596;2023-04-30T13:53:10;22.30;37.80
6738;DHT22;3406;49.902;8.596;2023-04-30T13:55:36;22.20;37.10
6738;DHT22;3406;49.902;8.596;2023-04-30T13:58:03;22.20;37.30
6738;DHT22;3406;49.902;8.596;2023-04-30T14:00:29;22.20;37.50
6738;DHT22;3406;49.902;8.596;2023-04-30T14:02:57;22.20;37.60
6738;DHT22;3406;49.902;8.596;2023-04-30T14:05:24;22.20;37.50
6738;DHT22;3406;49.902;8.596;2023-04-30T14:07:51;22.20;37.00
6738;DHT22;3406;49.902;8.596;2023-04-30T14:10:18;22.20;37.30
6738;DHT22;3406;49.902;8.596;2023-04-30T14:12:44;22.20;37.00
6738;DHT22;3406;49.902;8.596;2023-04-30T14:15:11;22.10;36.60
6738;DHT22;3406;49.902;8.596;2023-04-30T14:17:38;22.10;37.00
6738;DHT22;3406;49.902;8.596;2023-04-30T14:20:08;22.10;37.20
6738;DHT22;3406;49.902;8.596;2023-04-30T14:22:35;22.30;37.40
6738;DHT22;3406;49.902;8.596;2023-04-30T14:25:03;22.30;37.20
6738;DHT22;3406;49.902;8.596;2023-04-30T14:27:30;22.30;37.20
6738;DHT22;3406;49.902;8.596;2023-04-30T14:29:56;22.40;37.20
6738;DHT22;3406;49.902;8.596;2023-04-30T14:32:24;22.40;37.20
6738;DHT22;3406;49.902;8.596;2023-04-30T14:34:51;22.30;36.80
6738;DHT22;3406;49.902;8.596;2023-04-30T14:37:19;22.20;37.00
6738;DHT22;3406;49.902;8.596;2023-04-30T14:39:45;22.20;37.10
6738;DHT22;3406;49.902;8.596;2023-04-30T14:42:12;22.20;37.30
6738;DHT22;3406;49.902;8.596;2023-04-30T14:44:39;22.20;37.40
6738;DHT22;3406;49.902;8.596;2023-04-30T14:47:05;22.00;37.40
6738;DHT22;3406;49.902;8.596;2023-04-30T14:49:32;22.00;37.70
6738;DHT22;3406;49.902;8.596;2023-04-30T14:51:58;21.90;37.80
6738;DHT22;3406;49.902;8.596;2023-04-30T14:54:27;21.80;38.00
6738;DHT22;3406;49.902;8.596;2023-04-30T14:56:54;21.80;38.30
6738;DHT22;3406;49.902;8.596;2023-04-30T14:59:20;21.80;38.50
6738;DHT22;3406;49.902;8.596;2023-04-30T15:01:47;22.00;38.60
6738;DHT22;3406;49.902;8.596;2023-04-30T15:04:14;22.00;38.70
6738;DHT22;3406;49.902;8.596;2023-04-30T15:06:40;21.90;38.30
6738;DHT22;3406;49.902;8.596;2023-04-30T15:09:07;21.90;38.60
6738;DHT22;3406;49.902;8.596;2023-04-30T15:11:35;22.00;38.70
6738;DHT22;3406;49.902;8.596;2023-04-30T15:14:02;22.00;38.80
6738;DHT22;3406;49.902;8.596;2023-04-30T15:16:28;22.00;39.10
6738;DHT22;3406;49.902;8.596;2023-04-30T15:18:55;22.00;39.30
6738;DHT22;3406;49.902;8.596;2023-04-30T15:21:23;21.90;39.40
6738;DHT22;3406;49.902;8.596;2023-04-30T15:23:51;21.80;39.60
6738;DHT22;3406;49.902;8.596;2023-04-30T15:26:17;21.70;39.70
6738;DHT22;3406;49.902;8.596;2023-04-30T15:28:45;21.70;39.80
6738;DHT22;3406;49.902;8.596;2023-04-30T15:31:12;21.60;40.00
6738;DHT22;3406;49.902;8.596;2023-04-30T15:33:39;21.50;39.90
6738;DHT22;3406;49.902;8.596;2023-04-30T15:36:06;21.60;40.00
6738;DHT22;3406;49.902;8.596;2023-04-30T15:38:33;21.60;40.00
6738;DHT22;3406;49.902;8.596;2023-04-30T15:41:00;21.50;40.60
6738;DHT22;3406;49.902;8.596;2023-04-30T15:43:26;21.50;40.10
6738;DHT22;3406;49.902;8.596;2023-04-30T15:45:55;21.40;39.60
6738;DHT22;3406;49.902;8.596;2023-04-30T15:48:22;21.30;39.60
6738;DHT22;3406;49.902;8.596;2023-04-30T15:50:49;21.20;39.40
6738;DHT22;3406;49.902;8.596;2023-04-30T15:53:16;21.00;39.30
6738;DHT22;3406;49.902;8.596;2023-04-30T15:55:43;20.90;39.50
6738;DHT22;3406;49.902;8.596;2023-04-30T15:58:10;20.80;39.70
6738;DHT22;3406;49.902;8.596;2023-04-30T16:00:37;20.80;39.90
6738;DHT22;3406;49.902;8.596;2023-04-30T16:03:05;20.80;40.00
6738;DHT22;3406;49.902;8.596;2023-04-30T16:05:32;20.90;40.10